Salamis Filoxenia — 5BUY2 — position and weather

sailwx.info

Track history (hours):
 
Tides and Currents Weather Stations Pressure Air Temp Water Temp Dewpoint Dewpoint Depression Visibility Wind Speed Wind Dir Waves Ship Positions

Salamis Filoxenia

Last reported at 2016-Jun-27 23:14 UTC. Time now 2016-Jun-28 09:52 UTC.
Position N 37°39' E 025°52'.

Length 157 m; draft 6.2 m.

Type: Passenger vessel. MMSI: 209167000.

Date/timePositionNaut miles runAvg speedWind from/ knotsBaromVisibWave heightAir tempDewpointWater temp
2016-Jun-27 23:14N 37°39' E 025°52'1013.6
2016-Jun-27 22:32N 37°36' E 025°41'1413.8
2016-Jun-27 21:33N 37°32' E 025°25'1313.5
2016-Jun-27 20:33N 37°29' E 025°08'6 0.4
2016-Jun-27 04:33N 37°22' E 025°08'1212.3
2016-Jun-27 03:34N 37°18' E 025°23'1412.5
2016-Jun-27 02:26N 37°14' E 025°40'37410.6
2016-Jun-25 15:14N 34°37' E 032°39'1114.8
2016-Jun-25 14:30N 34°33' E 032°51'1110.7
2016-Jun-25 13:27N 34°38' E 033°03'2 2.7
2016-Jun-25 12:32N 34°39' E 033°01'0 0.0
2016-Jun-25 11:33N 34°39' E 033°01'0 0.0
2016-Jun-25 10:33N 34°39' E 033°01'0 0.0
2016-Jun-25 09:33N 34°39' E 033°01'0 0.0
2016-Jun-25 08:33N 34°39' E 033°01'0 0.0
2016-Jun-25 07:33N 34°39' E 033°01'8 7.1
2016-Jun-25 06:29N 34°32' E 032°57'1314.0
2016-Jun-25 05:33N 34°36' E 032°42'8614.3
2016-Jun-24 23:33N 35°19' E 031°12'1414.4
2016-Jun-24 22:33N 35°27' E 030°57'27212.4
2016-Jun-24 00:33N 37°10' E 025°45'1615.6
2016-Jun-23 23:34N 37°14' E 025°26'1514.9
2016-Jun-23 22:33N 37°18' E 025°08'1515.0
2016-Jun-23 21:33N 37°22' E 024°50'3115.0
2016-Jun-23 19:29N 37°31' E 024°13'1415.2
2016-Jun-23 18:33N 37°36' E 023°56'1414.4
2016-Jun-23 17:34N 37°43' E 023°40'1413.5
2016-Jun-23 16:33N 37°56' E 023°38'0 0.2
2016-Jun-23 15:33N 37°56' E 023°38'0 0.0
2016-Jun-23 14:33N 37°56' E 023°38'0 0.0
2016-Jun-23 13:33N 37°56' E 023°38'0 0.0
2016-Jun-23 12:33N 37°56' E 023°38'0 0.0
2016-Jun-23 11:33N 37°56' E 023°38'0 0.0
2016-Jun-23 10:33N 37°56' E 023°38'0 0.0
2016-Jun-23 09:33N 37°56' E 023°38'0 0.0
2016-Jun-23 08:33N 37°56' E 023°38'0 0.0
2016-Jun-23 07:33N 37°56' E 023°38'10 4.8
2016-Jun-23 05:33N 37°47' E 023°41'1313.3
2016-Jun-23 04:33N 37°34' E 023°43'1414.2
2016-Jun-23 03:33N 37°21' E 023°36'1514.6
2016-Jun-23 02:32N 37°07' E 023°30'40 1.7
2016-Jun-22 03:19N 36°27' E 023°40'45011.9
2016-Jun-20 13:34N 34°38' E 032°36'1615.8
2016-Jun-20 12:34N 34°33' E 032°54'8 8.4
2016-Jun-20 11:33N 34°39' E 033°01'0 0.1
2016-Jun-20 08:32N 34°39' E 033°01'0 0.0
2016-Jun-20 07:32N 34°39' E 033°01'0 0.0
2016-Jun-20 06:32N 34°39' E 033°01'0 0.0
2016-Jun-20 05:32N 34°39' E 033°01'6 6.3
2016-Jun-20 04:33N 34°34' E 033°04'1212.4
2016-Jun-20 03:33N 34°34' E 032°49'1413.9
2016-Jun-20 02:33N 34°39' E 032°33'  
Track history (hours):
 
Tides and Currents Weather Stations Pressure Air Temp Water Temp Dewpoint Dewpoint Depression Visibility Wind Speed Wind Dir Waves Ship Positions

Salamis Filoxenia

Last reported at 2016-Jun-27 23:14 UTC. Time now 2016-Jun-28 09:52 UTC.
Position N 37°39' E 025°52'.

Length 157 m; draft 6.2 m.

Type: Passenger vessel. MMSI: 209167000.

Date/timePositionNaut miles runAvg speedWind from/ knotsBaromVisibWave heightAir tempDewpointWater temp
2016-Jun-27 23:14N 37°39' E 025°52'1013.6
2016-Jun-27 22:32N 37°36' E 025°41'1413.8
2016-Jun-27 21:33N 37°32' E 025°25'1313.5
2016-Jun-27 20:33N 37°29' E 025°08'6 0.4
2016-Jun-27 04:33N 37°22' E 025°08'1212.3
2016-Jun-27 03:34N 37°18' E 025°23'1412.5
2016-Jun-27 02:26N 37°14' E 025°40'37410.6
2016-Jun-25 15:14N 34°37' E 032°39'1114.8
2016-Jun-25 14:30N 34°33' E 032°51'1110.7
2016-Jun-25 13:27N 34°38' E 033°03'2 2.7
2016-Jun-25 12:32N 34°39' E 033°01'0 0.0
2016-Jun-25 11:33N 34°39' E 033°01'0 0.0
2016-Jun-25 10:33N 34°39' E 033°01'0 0.0
2016-Jun-25 09:33N 34°39' E 033°01'0 0.0
2016-Jun-25 08:33N 34°39' E 033°01'0 0.0
2016-Jun-25 07:33N 34°39' E 033°01'8 7.1
2016-Jun-25 06:29N 34°32' E 032°57'1314.0
2016-Jun-25 05:33N 34°36' E 032°42'8614.3
2016-Jun-24 23:33N 35°19' E 031°12'1414.4
2016-Jun-24 22:33N 35°27' E 030°57'27212.4
2016-Jun-24 00:33N 37°10' E 025°45'1615.6
2016-Jun-23 23:34N 37°14' E 025°26'1514.9
2016-Jun-23 22:33N 37°18' E 025°08'1515.0
2016-Jun-23 21:33N 37°22' E 024°50'3115.0
2016-Jun-23 19:29N 37°31' E 024°13'1415.2
2016-Jun-23 18:33N 37°36' E 023°56'1414.4
2016-Jun-23 17:34N 37°43' E 023°40'1413.5
2016-Jun-23 16:33N 37°56' E 023°38'0 0.2
2016-Jun-23 15:33N 37°56' E 023°38'0 0.0
2016-Jun-23 14:33N 37°56' E 023°38'0 0.0
2016-Jun-23 13:33N 37°56' E 023°38'0 0.0
2016-Jun-23 12:33N 37°56' E 023°38'0 0.0
2016-Jun-23 11:33N 37°56' E 023°38'0 0.0
2016-Jun-23 10:33N 37°56' E 023°38'0 0.0
2016-Jun-23 09:33N 37°56' E 023°38'0 0.0
2016-Jun-23 08:33N 37°56' E 023°38'0 0.0
2016-Jun-23 07:33N 37°56' E 023°38'10 4.8
2016-Jun-23 05:33N 37°47' E 023°41'1313.3
2016-Jun-23 04:33N 37°34' E 023°43'1414.2
2016-Jun-23 03:33N 37°21' E 023°36'1514.6
2016-Jun-23 02:32N 37°07' E 023°30'40 1.7
2016-Jun-22 03:19N 36°27' E 023°40'45011.9
2016-Jun-20 13:34N 34°38' E 032°36'1615.8
2016-Jun-20 12:34N 34°33' E 032°54'8 8.4
2016-Jun-20 11:33N 34°39' E 033°01'0 0.1
2016-Jun-20 08:32N 34°39' E 033°01'0 0.0
2016-Jun-20 07:32N 34°39' E 033°01'0 0.0
2016-Jun-20 06:32N 34°39' E 033°01'0 0.0
2016-Jun-20 05:32N 34°39' E 033°01'6 6.3
2016-Jun-20 04:33N 34°34' E 033°04'1212.4
2016-Jun-20 03:33N 34°34' E 032°49'1413.9
2016-Jun-20 02:33N 34°39' E 032°33'  

Dump ship's entire track history